Time;durP1;ratioP1;P1;durP2;ratioP2;P2;SDS_P1;SDS_P2;PMS_P1;PMS_P2;Temp;Humidity;BMP_temperature;BMP_pressure;BME280_temperature;BME280_humidity;BME280_pressure;Samples;Min_cycle;Max_cycle;Signal;HPM_P1;HPM_P2
2021/04/18 00:00:31;;;;;;;69.50;23.50;;;;;;;5.40;88.14;101087.19;1749341;82;20999;-41
2021/04/18 00:02:58;;;;;;;79.97;23.73;;;;;;;5.40;88.14;101093.61;1749464;82;20942;-41
2021/04/18 00:05:29;;;;;;;69.77;25.00;;;;;;;5.38;88.20;101090.16;1749446;81;21533;-40
2021/04/18 00:08:03;;;;;;;93.30;22.90;;;;;;;5.40;88.30;101090.19;1749488;82;21034;-41
2021/04/18 00:10:36;;;;;;;82.20;22.20;;;;;;;5.41;88.25;101082.93;1749486;81;21204;-41
2021/04/18 00:13:04;;;;;;;53.75;22.35;;;;;;;5.42;88.39;101079.52;1749373;82;21022;-41
2021/04/18 00:15:33;;;;;;;59.25;24.07;;;;;;;5.43;88.30;101085.97;1749350;82;21030;-41
2021/04/18 00:18:01;;;;;;;55.05;22.77;;;;;;;5.37;88.11;101079.45;1749354;82;21077;-41
2021/04/18 00:20:29;;;;;;;48.45;21.75;;;;;;;5.35;88.03;101084.98;1749404;82;21014;-41
2021/04/18 00:22:57;;;;;;;47.67;20.55;;;;;;;5.30;88.05;101081.50;1749414;82;21200;-41
2021/04/18 00:25:24;;;;;;;41.60;19.73;;;;;;;5.27;88.04;101078.46;1749377;82;21654;-39
2021/04/18 00:27:52;;;;;;;52.67;20.37;;;;;;;5.24;88.15;101078.42;1749374;82;20971;-39
2021/04/18 00:30:21;;;;;;;42.05;20.77;;;;;;;5.22;88.19;101084.40;1749434;82;20975;-39
2021/04/18 00:32:49;;;;;;;42.25;20.57;;;;;;;5.20;88.26;101073.25;1749388;82;21014;-41
2021/04/18 00:35:19;;;;;;;41.02;19.48;;;;;;;5.18;88.32;101069.36;1749429;82;21562;-40
2021/04/18 00:37:48;;;;;;;36.53;19.10;;;;;;;5.17;88.40;101071.05;1749289;82;21047;-42
2021/04/18 00:40:20;;;;;;;33.00;19.67;;;;;;;5.17;88.45;101075.34;1745179;81;21750;-42
2021/04/18 00:42:48;;;;;;;42.05;18.50;;;;;;;5.18;88.55;101068.95;1719505;83;20963;-41
2021/04/18 00:45:17;;;;;;;42.20;17.73;;;;;;;5.17;88.50;101072.34;1719617;83;21039;-42
2021/04/18 00:47:48;;;;;;;36.70;19.02;;;;;;;5.19;88.55;101077.50;1719568;83;21373;-41
2021/04/18 00:50:26;;;;;;;41.37;18.40;;;;;;;5.19;88.45;101071.09;1719526;83;21049;-41
2021/04/18 00:52:56;;;;;;;44.67;20.23;;;;;;;5.21;88.44;101081.39;1709163;83;20959;-42
2021/04/18 00:55:26;;;;;;;40.65;19.95;;;;;;;5.17;88.19;101075.34;1706876;84;21472;-42
2021/04/18 00:57:55;;;;;;;48.10;20.43;;;;;;;5.15;88.40;101076.59;1706755;82;20960;-42
2021/04/18 01:00:24;;;;;;;43.85;20.25;;;;;;;5.13;88.37;101074.42;1706817;83;21338;-41
2021/04/18 01:02:52;;;;;;;38.40;19.55;;;;;;;5.11;88.25;101074.83;1706511;83;21137;-41
2021/04/18 01:05:20;;;;;;;40.43;20.08;;;;;;;5.08;88.18;101072.66;1706247;84;21030;-42
2021/04/18 01:07:48;;;;;;;39.67;17.62;;;;;;;5.07;88.59;101074.34;1706261;84;21047;-41
2021/04/18 01:10:17;;;;;;;53.38;20.72;;;;;;;5.05;88.62;101077.31;1706268;84;21055;-41
2021/04/18 01:12:45;;;;;;;61.95;26.12;;;;;;;5.05;88.62;101077.31;1706251;83;21356;-40
2021/04/18 01:15:15;;;;;;;56.58;24.12;;;;;;;5.02;88.49;101075.55;1706222;83;21038;-41
2021/04/18 01:17:43;;;;;;;46.98;21.45;;;;;;;4.99;88.71;101074.23;1706254;83;21023;-41
2021/04/18 01:20:18;;;;;;;42.08;21.48;;;;;;;4.99;88.71;101074.23;1706213;84;21055;-42
2021/04/18 01:22:48;;;;;;;43.05;21.05;;;;;;;4.98;88.65;101074.22;1706339;84;26617;-42
2021/04/18 01:25:21;;;;;;;50.33;24.50;;;;;;;4.97;88.70;101065.65;1701359;84;21396;-41
2021/04/18 01:27:57;;;;;;;43.65;23.22;;;;;;;4.95;88.42;101066.48;1698522;82;20952;-41
2021/04/18 01:30:28;;;;;;;45.10;22.77;;;;;;;4.95;88.42;101066.48;1706212;83;21515;-41
2021/04/18 01:32:58;;;;;;;46.55;21.50;;;;;;;4.95;88.86;101067.77;1706198;84;20964;-42
2021/04/18 01:35:27;;;;;;;45.55;21.97;;;;;;;4.96;88.63;101070.77;1706264;84;20991;-42
2021/04/18 01:37:55;;;;;;;54.00;28.80;;;;;;;4.95;88.77;101068.61;1706195;83;21252;-41
2021/04/18 01:40:24;;;;;;;45.12;24.25;;;;;;;4.94;88.74;101065.61;1706259;82;21563;-41
2021/04/18 01:42:52;;;;;;;45.55;24.20;;;;;;;4.93;88.69;101065.16;1686241;84;21598;-42
2021/04/18 01:45:21;;;;;;;45.83;24.50;;;;;;;4.94;88.63;101065.61;1706204;84;21094;-41
2021/04/18 01:47:50;;;;;;;45.00;23.65;;;;;;;4.94;88.67;101068.17;1706268;83;21015;-41
2021/04/18 01:50:18;;;;;;;45.00;23.65;;;;;;;4.96;88.77;101056.23;1706244;84;21388;-41
2021/04/18 01:52:47;;;;;;;49.58;22.82;;;;;;;4.96;88.77;101056.23;1706088;83;20989;-40
2021/04/18 01:55:17;;;;;;;48.00;22.65;;;;;;;4.97;88.96;101055.38;1706208;84;20975;-40
2021/04/18 01:57:47;;;;;;;48.83;22.05;;;;;;;5.00;88.99;101054.58;1706226;83;20948;-42
2021/04/18 02:00:17;;;;;;;43.78;22.60;;;;;;;5.01;89.09;101055.02;1705468;84;21577;-41
2021/04/18 02:02:53;;;;;;;45.23;23.38;;;;;;;5.00;88.85;101054.14;1705977;83;21220;-41
2021/04/18 02:05:23;;;;;;;52.50;22.73;;;;;;;5.00;88.85;101054.14;1706340;82;20976;-40
2021/04/18 02:07:53;;;;;;;46.37;22.13;;;;;;;4.98;88.91;101053.26;1706195;82;21079;-41
2021/04/18 02:10:21;;;;;;;53.48;23.05;;;;;;;4.98;88.91;101053.26;1706131;82;21083;-41
2021/04/18 02:12:50;;;;;;;55.95;23.15;;;;;;;4.97;89.06;101044.27;1706226;84;21075;-41
2021/04/18 02:15:20;;;;;;;50.08;21.35;;;;;;;4.97;89.17;101049.41;1706115;84;21382;-40
2021/04/18 02:17:47;;;;;;;48.58;23.22;;;;;;;4.97;89.17;101049.41;1706262;84;21500;-41
2021/04/18 02:20:17;;;;;;;54.08;23.47;;;;;;;4.96;88.82;101047.69;1686239;84;21047;-42
2021/04/18 02:22:45;;;;;;;67.08;27.27;;;;;;;4.91;88.76;101049.30;1706259;84;21701;-41
2021/04/18 02:25:14;;;;;;;67.58;28.23;;;;;;;4.91;88.76;101049.30;1706311;84;21034;-41
2021/04/18 02:27:42;;;;;;;55.95;24.85;;;;;;;4.91;88.80;101049.30;1706158;84;21153;-40
2021/04/18 02:30:13;;;;;;;52.13;24.85;;;;;;;4.90;88.89;101049.73;1705045;84;21058;-43
2021/04/18 02:32:43;;;;;;;47.67;24.15;;;;;;;4.89;88.94;101050.13;1705937;83;21031;-42
2021/04/18 02:35:15;;;;;;;47.78;23.65;;;;;;;4.91;89.05;101049.30;1706152;83;21595;-42
2021/04/18 02:37:45;;;;;;;55.03;24.95;;;;;;;4.92;89.15;101044.60;1706231;83;20995;-42
2021/04/18 02:40:14;;;;;;;52.43;23.60;;;;;;;4.92;89.31;101043.32;1706290;82;22128;-42
2021/04/18 02:42:43;;;;;;;43.73;21.42;;;;;;;4.93;89.39;101044.64;1706104;83;20932;-40
2021/04/18 02:45:12;;;;;;;45.08;21.75;;;;;;;4.95;89.41;101041.67;1706178;84;20943;-40
2021/04/18 02:47:42;;;;;;;41.58;20.52;;;;;;;4.96;89.42;101046.40;1705868;84;21035;-40
2021/04/18 02:50:12;;;;;;;41.73;22.07;;;;;;;4.93;89.43;101045.92;1706257;84;21000;-42
2021/04/18 02:52:39;;;;;;;32.15;18.55;;;;;;;4.93;89.57;101040.79;1711919;83;21372;-42
2021/04/18 02:55:10;;;;;;;34.27;18.20;;;;;;;4.92;89.61;101038.19;1719628;83;20923;-42
2021/04/18 02:57:39;;;;;;;33.53;19.12;;;;;;;4.93;89.60;101043.80;1718015;83;21122;-41
2021/04/18 03:00:10;;;;;;;29.90;17.30;;;;;;;4.93;89.67;101045.08;1719719;83;20947;-41
2021/04/18 03:02:38;;;;;;;31.50;18.07;;;;;;;4.93;89.78;101037.37;1719818;83;20959;-41
2021/04/18 03:05:09;;;;;;;30.37;18.00;;;;;;;4.95;89.93;101034.41;1719694;83;21413;-41
2021/04/18 03:07:39;;;;;;;34.18;17.77;;;;;;;4.98;89.99;101032.73;1693849;83;21551;-41
2021/04/18 03:10:10;;;;;;;26.68;16.25;;;;;;;5.00;89.87;101036.61;1719641;83;20951;-41
2021/04/18 03:12:37;;;;;;;33.28;18.23;;;;;;;5.01;89.96;101030.64;1719604;83;21026;-43
2021/04/18 03:15:07;;;;;;;32.05;17.37;;;;;;;5.11;89.86;101032.91;1719698;83;21098;-41
2021/04/18 03:17:36;;;;;;;34.67;16.15;;;;;;;5.11;89.86;101032.91;1719705;83;21467;-41
2021/04/18 03:20:07;;;;;;;32.88;18.27;;;;;;;5.20;89.92;101039.44;1719472;82;20971;-42
2021/04/18 03:22:34;;;;;;;34.65;18.50;;;;;;;5.20;89.92;101039.44;1719708;83;21517;-42
2021/04/18 03:25:04;;;;;;;28.85;17.73;;;;;;;5.21;89.90;101040.31;1719617;83;21101;-40
2021/04/18 03:27:32;;;;;;;34.73;17.02;;;;;;;5.25;89.78;101036.94;1719689;83;20999;-44
2021/04/18 03:30:05;;;;;;;30.90;16.80;;;;;;;5.26;89.51;101046.37;1719671;83;21375;-42
2021/04/18 03:32:33;;;;;;;43.92;19.85;;;;;;;5.23;89.44;101047.18;1719638;83;20970;-41
2021/04/18 03:35:04;;;;;;;36.90;19.30;;;;;;;5.23;89.37;101054.03;1719780;83;21666;-41
2021/04/18 03:37:32;;;;;;;34.38;15.93;;;;;;;5.23;89.37;101054.03;1719723;82;21582;-41
2021/04/18 03:40:00;;;;;;;30.08;15.40;;;;;;;5.23;89.37;101053.59;1719628;82;21074;-40
2021/04/18 03:42:29;;;;;;;27.65;16.00;;;;;;;5.24;89.33;101053.19;1719681;83;21146;-40
2021/04/18 03:44:59;;;;;;;34.15;16.57;;;;;;;5.25;89.34;101057.48;1719163;83;21066;-41
2021/04/18 03:47:27;;;;;;;29.72;16.55;;;;;;;5.24;89.31;101052.75;1692967;83;21018;-41
2021/04/18 03:49:57;;;;;;;30.92;15.05;;;;;;;5.27;89.45;101048.09;1718742;83;21022;-41
2021/04/18 03:52:27;;;;;;;30.85;15.53;;;;;;;5.27;89.45;101048.09;1719088;83;21019;-41
2021/04/18 03:54:55;;;;;;;29.92;16.00;;;;;;;5.29;89.15;101051.53;1719602;82;21210;-42
2021/04/18 03:57:22;;;;;;;33.18;16.55;;;;;;;5.32;89.20;101046.03;1719641;83;20978;-41
2021/04/18 03:59:51;;;;;;;32.50;15.25;;;;;;;5.35;89.17;101046.47;1719662;83;21018;-41
2021/04/18 04:02:19;;;;;;;30.92;17.50;;;;;;;5.43;89.11;101046.17;1719641;83;21022;-41
2021/04/18 04:04:48;;;;;;;32.05;16.70;;;;;;;5.43;89.11;101046.17;1693251;83;21027;-41
2021/04/18 04:07:18;;;;;;;35.92;18.95;;;;;;;5.46;89.15;101041.06;1719623;82;21373;-41
2021/04/18 04:09:48;;;;;;;46.37;21.95;;;;;;;5.52;89.16;101041.54;1719618;83;21471;-41
2021/04/18 04:12:16;;;;;;;49.13;20.62;;;;;;;5.57;88.86;101039.03;1719693;82;20963;-41
2021/04/18 04:14:46;;;;;;;42.08;21.35;;;;;;;5.62;89.10;101033.52;1719621;83;21102;-41
2021/04/18 04:17:15;;;;;;;42.00;22.82;;;;;;;5.71;89.32;101031.48;1719624;83;21014;-41
2021/04/18 04:19:45;;;;;;;45.10;23.92;;;;;;;5.75;88.83;101036.68;1714690;82;21393;-41
2021/04/18 04:22:20;;;;;;;;;;;;;;;5.75;88.83;101036.68;1691278;83;21063;-41
2021/04/18 04:24:52;;;;;;;48.95;21.42;;;;;;;5.81;88.98;101038.88;1719681;83;20148;-42
2021/04/18 04:27:21;;;;;;;51.92;23.12;;;;;;;5.84;88.81;101044.91;1719680;83;21050;-42
2021/04/18 04:29:49;;;;;;;44.45;22.90;;;;;;;5.87;88.72;101044.06;1719639;83;20947;-40
2021/04/18 04:32:17;;;;;;;49.63;21.48;;;;;;;5.90;88.48;101035.98;1719644;83;21204;-40
2021/04/18 04:34:45;;;;;;;50.05;20.00;;;;;;;5.95;88.33;101036.03;1719649;83;20959;-41
2021/04/18 04:37:13;;;;;;;40.65;20.57;;;;;;;5.98;87.97;101036.06;1719625;83;20948;-41
2021/04/18 04:39:41;;;;;;;57.88;21.90;;;;;;;6.06;87.50;101028.87;1719698;83;20968;-42
2021/04/18 04:42:10;;;;;;;47.48;22.15;;;;;;;6.06;87.50;101028.87;1719822;82;21057;-40
2021/04/18 04:44:37;;;;;;;73.05;23.05;;;;;;;6.14;87.42;101037.50;1719803;83;21389;-40
2021/04/18 04:47:05;;;;;;;50.90;20.60;;;;;;;6.20;87.15;101032.85;1719823;83;21085;-44
2021/04/18 04:49:33;;;;;;;50.75;20.12;;;;;;;6.25;86.95;101029.48;1719826;83;21010;-41
2021/04/18 04:52:00;;;;;;;47.33;22.45;;;;;;;6.31;86.75;101035.95;1719746;83;21145;-41
2021/04/18 04:54:28;;;;;;;47.70;22.37;;;;;;;6.36;86.51;101038.98;1707429;83;20928;-42
2021/04/18 04:56:57;;;;;;;50.52;21.57;;;;;;;6.41;86.41;101039.88;1706207;83;20963;-42
2021/04/18 04:59:26;;;;;;;50.03;20.92;;;;;;;6.47;86.20;101042.52;1706280;84;20956;-43
2021/04/18 05:01:53;;;;;;;52.65;20.77;;;;;;;6.54;85.90;101036.56;1706248;84;20951;-42
2021/04/18 05:04:21;;;;;;;41.30;20.20;;;;;;;6.60;85.56;101040.91;1706252;84;21035;-41
2021/04/18 05:06:49;;;;;;;45.43;20.82;;;;;;;6.60;85.56;101040.91;1706244;82;21058;-42
2021/04/18 05:09:17;;;;;;;46.08;20.05;;;;;;;6.68;85.34;101042.22;1706242;82;21373;-42
2021/04/18 05:11:46;;;;;;;55.92;20.32;;;;;;;6.71;85.10;101035.84;1706119;84;20920;-42
2021/04/18 05:14:13;;;;;;;41.42;19.40;;;;;;;6.75;84.86;101034.56;1706269;83;21090;-41
2021/04/18 05:16:41;;;;;;;45.75;19.37;;;;;;;6.80;84.68;101036.30;1706239;83;21074;-41
2021/04/18 05:19:09;;;;;;;42.95;19.27;;;;;;;6.87;84.39;101033.78;1706253;84;21476;-41
2021/04/18 05:21:36;;;;;;;42.90;18.82;;;;;;;6.95;84.22;101032.98;1706261;84;21211;-41
2021/04/18 05:24:06;;;;;;;53.70;20.23;;;;;;;7.04;83.93;101031.73;1706240;84;21126;-41
2021/04/18 05:26:34;;;;;;;50.00;19.55;;;;;;;7.12;83.75;101028.77;1706218;84;21051;-41
2021/04/18 05:29:02;;;;;;;36.83;19.65;;;;;;;7.23;83.47;101031.84;1706180;84;21054;-41
2021/04/18 05:31:29;;;;;;;47.13;20.60;;;;;;;7.30;83.16;101024.56;1706251;84;21074;-42
2021/04/18 05:33:57;;;;;;;37.70;18.40;;;;;;;7.40;82.71;101018.58;1706222;84;21455;-42
2021/04/18 05:36:25;;;;;;;29.60;18.40;;;;;;;7.46;82.28;101010.91;1706199;84;21071;-40
2021/04/18 05:38:53;;;;;;;33.35;17.15;;;;;;;7.52;81.86;101020.34;1706206;84;21055;-40
2021/04/18 05:41:21;;;;;;;22.73;16.17;;;;;;;7.58;81.20;101019.52;1706120;82;21125;-39
2021/04/18 05:43:49;;;;;;;21.87;15.25;;;;;;;7.66;80.80;101019.09;1706201;84;20936;-40
2021/04/18 05:46:16;;;;;;;25.23;14.90;;;;;;;7.76;80.41;101022.56;1706275;84;21208;-41
2021/04/18 05:48:44;;;;;;;27.22;15.98;;;;;;;7.84;79.71;101021.30;1706265;83;21615;-41
2021/04/18 05:51:12;;;;;;;32.33;16.82;;;;;;;7.90;79.06;101023.46;1706187;84;20984;-41
2021/04/18 05:53:40;;;;;;;25.17;15.10;;;;;;;8.01;78.75;101025.18;1712113;83;21065;-41
2021/04/18 05:56:08;;;;;;;26.90;15.35;;;;;;;8.14;78.26;101026.05;1719766;83;20986;-42
2021/04/18 05:58:35;;;;;;;24.18;15.15;;;;;;;8.29;77.10;101027.36;1719805;83;21224;-42
2021/04/18 06:01:03;;;;;;;16.48;11.65;;;;;;;8.39;77.02;101022.19;1719650;83;21011;-41
2021/04/18 06:03:30;;;;;;;19.50;11.80;;;;;;;8.52;76.40;101014.05;1719741;83;21026;-41
2021/04/18 06:05:59;;;;;;;16.52;11.95;;;;;;;8.56;74.79;101018.34;1719685;83;21077;-41
2021/04/18 06:08:26;;;;;;;17.23;13.18;;;;;;;8.68;74.13;101017.46;1719960;83;21014;-42
2021/04/18 06:10:54;;;;;;;21.40;13.05;;;;;;;8.85;73.89;101023.46;1719740;83;21316;-41
2021/04/18 06:13:23;;;;;;;22.32;13.62;;;;;;;8.91;73.35;101026.02;1719633;83;21054;-41
2021/04/18 06:15:53;;;;;;;20.02;13.20;;;;;;;9.05;73.04;101018.69;1719648;83;21023;-42
2021/04/18 06:18:21;;;;;;;19.60;11.57;;;;;;;9.19;72.58;101017.34;1719714;82;21050;-42
2021/04/18 06:20:49;;;;;;;18.17;11.85;;;;;;;9.33;71.99;101025.88;1719778;83;21017;-41
2021/04/18 06:23:18;;;;;;;11.38;10.13;;;;;;;9.39;71.55;101019.00;1719829;83;22265;-41
2021/04/18 06:25:47;;;;;;;11.33;8.83;;;;;;;9.42;70.17;101019.82;1719697;83;21019;-41
2021/04/18 06:28:15;;;;;;;9.83;8.83;;;;;;;9.42;68.58;101018.98;1719683;83;20932;-41
2021/04/18 06:30:43;;;;;;;12.35;9.38;;;;;;;9.47;67.77;101017.22;1719781;83;21500;-41
2021/04/18 06:33:11;;;;;;;9.93;9.03;;;;;;;9.53;66.83;101016.34;1719715;83;21087;-41
2021/04/18 06:35:39;;;;;;;12.10;8.65;;;;;;;9.56;66.68;101013.73;1719690;83;21388;-41
2021/04/18 06:38:06;;;;;;;9.38;8.43;;;;;;;9.57;66.17;101023.20;1719685;83;21018;-41
2021/04/18 06:40:34;;;;;;;10.90;8.48;;;;;;;9.63;66.22;101018.00;1719700;82;21120;-42
2021/04/18 06:43:08;;;;;;;10.40;9.40;;;;;;;9.66;65.61;101025.73;1719707;83;21027;-41
2021/04/18 06:45:36;;;;;;;9.28;8.48;;;;;;;9.72;65.62;101023.11;1719762;83;21003;-40
2021/04/18 06:48:05;;;;;;;7.75;6.92;;;;;;;9.79;65.46;101022.64;1719698;83;21372;-41
2021/04/18 06:50:33;;;;;;;9.78;8.78;;;;;;;9.96;64.82;101019.09;1719602;83;21018;-41
2021/04/18 06:53:01;;;;;;;13.45;8.33;;;;;;;10.13;64.02;101020.27;1719569;83;21059;-41
2021/04/18 06:55:29;;;;;;;8.55;7.80;;;;;;;10.25;62.83;101025.78;1719659;83;20947;-41
2021/04/18 06:57:57;;;;;;;7.75;6.87;;;;;;;10.27;62.51;101030.50;1719718;83;21116;-41
2021/04/18 07:00:24;;;;;;;8.95;6.70;;;;;;;10.31;62.27;101028.31;1670411;83;21393;-41
2021/04/18 07:03:21;;;;;;;8.68;6.40;;;;;;;10.35;62.19;101029.58;1718569;83;21049;-41
2021/04/18 07:05:47;;;;;;;7.20;6.53;;;;;;;10.41;61.86;101028.71;1719527;83;21014;-42
2021/04/18 07:08:29;;;;;;;8.05;6.95;;;;;;;10.42;61.16;101023.95;1719673;83;21026;-41
2021/04/18 07:11:18;;;;;;;8.25;7.55;;;;;;;10.40;60.66;101024.80;1719694;83;20952;-42
2021/04/18 07:13:47;;;;;;;14.63;8.00;;;;;;;10.40;61.07;101020.52;1719557;83;21385;-41
2021/04/18 07:16:27;;;;;;;17.90;8.15;;;;;;;10.46;61.46;101019.59;1719554;83;21081;-41
2021/04/18 07:18:55;;;;;;;7.92;7.22;;;;;;;10.49;61.12;101023.47;1719684;83;20999;-41
2021/04/18 07:21:24;;;;;;;19.20;7.05;;;;;;;10.51;60.56;101020.84;1719601;83;21027;-41
2021/04/18 07:23:57;;;;;;;13.22;7.22;;;;;;;10.52;60.81;101014.80;1719675;83;21611;-41
2021/04/18 07:26:27;;;;;;;7.25;6.28;;;;;;;10.57;61.03;101011.73;1717463;83;21397;-42
2021/04/18 07:29:17;;;;;;;24.87;8.20;;;;;;;10.64;60.78;101009.52;1719592;83;21219;-41
2021/04/18 07:31:46;;;;;;;15.23;8.05;;;;;;;10.68;60.27;101011.20;1719570;83;20959;-41
2021/04/18 07:34:21;;;;;;;8.68;7.50;;;;;;;10.72;60.14;101008.12;1719497;83;20943;-42
2021/04/18 07:36:52;;;;;;;12.33;7.95;;;;;;;10.59;60.34;101009.98;1719738;83;21624;-42
2021/04/18 07:39:20;;;;;;;9.38;8.50;;;;;;;10.58;60.58;101010.85;1717339;83;21314;-41
2021/04/18 07:41:49;;;;;;;9.23;8.30;;;;;;;10.69;60.93;101011.62;1719587;82;21046;-42
2021/04/18 07:44:20;;;;;;;9.55;8.60;;;;;;;10.85;60.98;101012.73;1719601;83;22166;-41
2021/04/18 07:46:51;;;;;;;9.28;7.80;;;;;;;10.97;61.27;101012.63;1719614;83;20994;-41
2021/04/18 07:49:20;;;;;;;9.75;7.78;;;;;;;11.07;61.15;101015.97;1719733;83;21449;-42
2021/04/18 07:51:49;;;;;;;10.98;7.83;;;;;;;11.14;60.67;101016.77;1719742;83;22378;-41
2021/04/18 07:54:17;;;;;;;13.55;8.98;;;;;;;11.18;60.41;101014.09;1714250;83;21027;-43
2021/04/18 07:56:46;;;;;;;9.33;8.33;;;;;;;11.21;60.07;101006.28;1706093;84;21015;-40
2021/04/18 07:59:16;;;;;;;11.25;8.65;;;;;;;11.28;60.24;100999.30;1706015;84;21011;-41
2021/04/18 08:01:44;;;;;;;9.35;8.35;;;;;;;11.30;60.05;100992.81;1706033;84;21568;-41
2021/04/18 08:04:12;;;;;;;9.05;8.15;;;;;;;11.39;61.18;100993.97;1706052;82;21396;-42
2021/04/18 08:06:41;;;;;;;11.70;8.90;;;;;;;11.59;60.75;100989.80;1706048;83;21066;-42
2021/04/18 08:09:23;;;;;;;10.68;7.67;;;;;;;11.88;59.82;100985.95;1706016;84;21075;-42
2021/04/18 08:12:16;;;;;;;10.20;9.20;;;;;;;12.17;58.81;100985.95;1706041;84;21011;-40
2021/04/18 08:14:49;;;;;;;12.23;7.33;;;;;;;12.42;59.04;100979.47;1706213;82;21091;-41
2021/04/18 08:17:18;;;;;;;7.60;6.80;;;;;;;12.68;57.42;100985.50;1706302;84;21432;-41
2021/04/18 08:19:57;;;;;;;15.40;5.90;;;;;;;12.93;55.23;100979.36;1706216;84;21505;-42
2021/04/18 08:22:25;;;;;;;8.45;5.92;;;;;;;13.28;55.65;100974.80;1706239;83;21007;-43
2021/04/18 08:25:08;;;;;;;17.30;5.40;;;;;;;13.50;53.70;100972.13;1706181;83;21047;-41
2021/04/18 08:28:08;;;;;;;18.00;5.37;;;;;;;13.74;52.16;100969.02;1705387;84;21032;-44
2021/04/18 08:31:02;;;;;;;13.35;5.30;;;;;;;13.89;51.99;100964.77;1706238;83;22089;-42
2021/04/18 08:33:43;;;;;;;5.35;4.95;;;;;;;13.99;51.66;100957.56;1667002;83;20971;-41
2021/04/18 08:36:21;;;;;;;5.47;4.97;;;;;;;14.17;51.09;100956.27;1706286;83;20940;-43
2021/04/18 08:39:03;;;;;;;5.60;5.05;;;;;;;13.89;51.12;100958.70;1706345;84;20940;-42
2021/04/18 08:41:52;;;;;;;6.10;5.05;;;;;;;13.63;51.42;100954.50;1692620;82;21058;-42
2021/04/18 08:44:37;;;;;;;5.10;4.70;;;;;;;13.75;52.10;100952.06;1706250;83;21392;-42
2021/04/18 08:47:16;;;;;;;5.92;5.30;;;;;;;14.01;50.54;100946.66;1706151;82;21590;-42
2021/04/18 08:49:57;;;;;;;5.53;4.83;;;;;;;13.89;49.56;100943.08;1706248;84;20964;-42
2021/04/18 08:52:32;;;;;;;6.80;4.78;;;;;;;13.39;50.61;100940.30;1706169;83;21027;-40
2021/04/18 08:55:14;;;;;;;7.60;5.05;;;;;;;13.13;51.58;100931.33;1713506;83;21014;-41
2021/04/18 08:57:41;;;;;;;8.30;5.05;;;;;;;13.25;52.46;100929.34;1719751;83;21375;-41
2021/04/18 09:00:13;;;;;;;6.58;4.90;;;;;;;13.52;52.13;100920.10;1711046;83;20955;-41
2021/04/18 09:02:44;;;;;;;5.10;4.67;;;;;;;13.79;52.01;100914.70;1711063;83;21145;-41
2021/04/18 09:05:18;;;;;;;10.00;4.35;;;;;;;14.17;51.91;100909.41;1661211;83;21389;-41
2021/04/18 09:07:45;;;;;;;4.45;4.05;;;;;;;14.68;50.63;100908.47;1719783;83;20961;-41
2021/04/18 09:10:14;;;;;;;5.22;3.83;;;;;;;15.16;49.10;100903.66;1700558;83;21078;-41
2021/04/18 09:12:46;;;;;;;5.40;4.90;;;;;;;15.47;48.60;100900.92;1689388;84;21062;-41
2021/04/18 09:15:15;;;;;;;5.30;4.00;;;;;;;15.58;46.27;100894.52;1663970;85;21078;-43
2021/04/18 09:17:43;;;;;;;5.47;4.17;;;;;;;15.31;45.62;100888.81;1704684;83;21022;-43
2021/04/18 10:03:13;;;;;;;6.45;4.35;;;;;;;13.76;48.06;100862.70;1791774;77;22051;-43
2021/04/18 10:05:53;;;;;;;7.35;3.67;;;;;;;13.87;48.35;100852.49;1788791;80;21014;-42
2021/04/18 10:08:34;;;;;;;6.33;3.87;;;;;;;13.84;46.61;100857.78;1783513;80;21377;-42
2021/04/18 10:11:16;;;;;;;5.03;3.67;;;;;;;13.98;47.19;100858.26;1768339;80;21002;-42
2021/04/18 10:13:56;;;;;;;8.58;3.90;;;;;;;14.14;47.90;100855.26;1779306;80;21240;-42
2021/04/18 10:16:42;;;;;;;5.03;4.20;;;;;;;14.63;47.17;100858.23;1695576;83;21589;-42
2021/04/18 10:19:18;;;;;;;17.48;4.12;;;;;;;15.04;46.69;100844.92;1719237;83;20947;-42
2021/04/18 10:22:08;;;;;;;5.72;3.98;;;;;;;15.34;43.99;100844.38;1727884;83;21532;-42
2021/04/18 10:24:48;;;;;;;4.00;3.30;;;;;;;15.42;43.99;100849.82;1727634;83;21069;-42
2021/04/18 10:27:22;;;;;;;11.25;3.98;;;;;;;15.19;43.72;100848.33;1708677;83;20963;-42
2021/04/18 10:29:51;;;;;;;5.50;3.72;;;;;;;15.12;43.11;100846.83;1721528;83;21014;-42
2021/04/18 10:32:21;;;;;;;21.57;5.78;;;;;;;14.78;43.14;100842.66;1700975;83;21049;-42
2021/04/18 10:34:52;;;;;;;41.80;5.50;;;;;;;14.51;44.18;100838.16;1701757;83;21391;-43
2021/04/18 10:37:21;;;;;;;7.58;4.22;;;;;;;14.23;45.10;100840.68;1722026;83;21584;-42
2021/04/18 10:39:49;;;;;;;30.05;3.98;;;;;;;13.97;44.58;100847.91;1727818;83;21033;-42
2021/04/18 10:42:18;;;;;;;5.37;3.05;;;;;;;13.75;43.06;100844.09;1727477;83;21610;-42
2021/04/18 10:44:47;;;;;;;3.58;3.27;;;;;;;13.70;42.64;100845.96;1720695;83;21078;-42
2021/04/18 10:47:18;;;;;;;2.87;2.62;;;;;;;13.70;43.36;100843.36;1723839;83;21292;-42
2021/04/18 10:49:49;;;;;;;7.55;3.05;;;;;;;13.78;43.39;100843.17;1693682;83;21038;-41
2021/04/18 10:52:18;;;;;;;5.50;3.05;;;;;;;13.95;43.03;100840.13;1733297;81;21042;-42
2021/04/18 10:54:47;;;;;;;19.65;3.25;;;;;;;14.20;42.42;100835.12;1724573;82;21022;-43
2021/04/18 10:57:16;;;;;;;25.40;3.85;;;;;;;14.39;42.25;100831.15;1717872;82;21018;-41
2021/04/18 10:59:46;;;;;;;5.42;3.00;;;;;;;14.49;42.60;100833.45;1736000;82;21456;-42
2021/04/18 11:02:14;;;;;;;85.47;6.62;;;;;;;14.66;41.69;100824.30;1711915;82;20971;-42
2021/04/18 11:04:45;;;;;;;11.20;3.10;;;;;;;15.17;41.17;100827.97;1705283;84;21012;-43
2021/04/18 11:07:14;;;;;;;14.58;2.65;;;;;;;15.57;37.66;100815.38;1775696;80;20959;-43
2021/04/18 11:09:43;;;;;;;42.33;4.65;;;;;;;15.50;36.60;100817.34;1772600;80;21049;-43
2021/04/18 11:12:19;;;;;;;22.25;2.35;;;;;;;15.30;36.81;100814.55;1772376;80;21357;-43
2021/04/18 11:14:48;;;;;;;8.23;1.90;;;;;;;15.28;35.91;100827.63;1770398;80;21025;-42
2021/04/18 11:17:16;;;;;;;8.18;3.08;;;;;;;15.15;36.03;100822.39;1760301;80;20957;-43
2021/04/18 11:19:44;;;;;;;6.05;1.80;;;;;;;15.19;37.07;100821.42;1775170;80;21742;-40
2021/04/18 11:22:13;;;;;;;8.03;1.67;;;;;;;15.08;37.09;100822.59;1775232;79;20970;-41
2021/04/18 11:24:41;;;;;;;44.60;3.98;;;;;;;15.09;36.25;100813.03;1775161;79;21388;-41
2021/04/18 11:27:10;;;;;;;76.40;6.17;;;;;;;14.88;36.33;100815.41;1765912;80;20954;-41
2021/04/18 11:29:40;;;;;;;85.45;6.72;;;;;;;14.67;38.05;100812.98;1749072;80;21227;-41
2021/04/18 11:32:11;;;;;;;41.90;3.45;;;;;;;14.65;37.91;100809.10;1744676;80;21023;-41
2021/04/18 11:34:42;;;;;;;11.80;1.85;;;;;;;14.62;38.91;100814.41;1767153;80;21149;-44
2021/04/18 11:37:12;;;;;;;19.10;2.12;;;;;;;14.77;39.33;100809.65;1765510;80;22267;-43
2021/04/18 11:39:40;;;;;;;3.37;1.55;;;;;;;15.17;37.62;100816.24;1768202;80;21507;-41
2021/04/18 11:42:09;;;;;;;2.08;1.50;;;;;;;15.63;35.72;100811.72;1743676;82;21094;-42
2021/04/18 11:44:37;;;;;;;12.50;1.95;;;;;;;15.88;36.05;100803.91;1756827;80;21200;-42
2021/04/18 11:47:04;;;;;;;2.12;1.80;;;;;;;15.89;37.12;100803.00;1763126;80;21074;-42
2021/04/18 11:49:33;;;;;;;12.45;2.25;;;;;;;15.88;36.43;100790.00;1744872;80;21489;-42
2021/04/18 11:52:00;;;;;;;41.50;2.85;;;;;;;15.58;35.82;100797.98;1748086;80;21082;-42
2021/04/18 11:54:28;;;;;;;10.20;1.92;;;;;;;15.36;37.18;100793.48;1744825;80;20996;-42
2021/04/18 11:56:55;;;;;;;27.52;2.60;;;;;;;15.22;37.60;100799.98;1746377;80;21022;-42
2021/04/18 11:59:23;;;;;;;2.80;1.98;;;;;;;15.14;37.63;100796.79;1745990;80;21014;-42
2021/04/18 12:01:51;;;;;;;61.15;3.20;;;;;;;15.02;36.84;100789.34;1755396;80;21525;-42
2021/04/18 12:08:05;;;;;;;12.65;1.90;;;;;;;15.63;35.90;100792.98;1796722;79;22137;-41
2021/04/18 12:10:35;;;;;;;1.80;1.70;;;;;;;15.56;35.58;100795.89;1775845;79;20988;-43
2021/04/18 12:13:03;;;;;;;2.58;1.80;;;;;;;15.24;35.55;100793.44;1775272;79;21393;-43
2021/04/18 12:15:31;;;;;;;3.25;1.60;;;;;;;15.19;36.35;100795.34;1742639;80;21125;-42
2021/04/18 12:17:59;;;;;;;4.85;1.70;;;;;;;15.02;37.01;100796.73;1770148;79;21405;-43
2021/04/18 12:20:27;;;;;;;19.40;2.22;;;;;;;14.93;38.14;100792.66;1779126;79;21219;-41